Terminal Aerodrome Forecast
Issued by NWS Wilmington, NC

Home | Current Version | Previous Version | Text Only | Print | Product List | Glossary On
Versions: 1 2 3 4 5 6 7 8 9 10 11 12 13 14 15 16 17
000
FTUS42 KILM 282303 AAA
TAFFLO
TAF AMD
KFLO 282303Z 2823/2918 25012G17KT P6SM VCTS SCT040CB BKN070
      TEMPO 2823/2902 VRB25G35KT 3SM TSRA BKN025CB OVC060
     FM290300 26005KT P6SM BKN100
     FM291600 26009KT P6SM SCT130 PROB30 2917/2918 4SM -TSRA
      SCT040CB BKN120=

USA.gov is the U.S. government's official web portal to all federal, state and local government web resources and services.